Terminal Aerodrome Forecast
Issued by NWS

Home | Current Version | Previous Version | Text Only | Print | Product List | Glossary On
Versions: 1 2 3 4 5 6 7 8 9 10 11 12 13 14 15 16
000
FTUS43 KDTX 310520
TAFMBS
TAF
KMBS 310520Z 3106/0106 23005KT P6SM -SHRA OVC040
     FM310800 23005KT 4SM -SHRA BR OVC025
     FM311100 30005KT 4SM BR OVC015
     FM311500 33015KT 2SM SHRA BR OVC008
     FM311800 36020G30KT 4SM SHRA OVC015
     FM312300 36015G25KT P6SM OVC035=

USA.gov is the U.S. government's official web portal to all federal, state and local government web resources and services.